Time;durP1;ratioP1;P1;durP2;ratioP2;P2;SDS_P1;SDS_P2;PMS_P1;PMS_P2;Temp;Humidity;BMP_temperature;BMP_pressure;BME280_temperature;BME280_humidity;BME280_pressure;Samples;Min_cycle;Max_cycle;Signal;HPM_P1;HPM_P2
2023/07/05 00:00:17;;;;;;;4.35;3.90;;;23.00;50.30;;;;;;5019245;28;20220;-81
2023/07/05 00:02:45;;;;;;;4.13;3.72;;;23.00;50.20;;;;;;5035365;28;20243;-81
2023/07/05 00:05:12;;;;;;;4.22;3.55;;;23.00;50.40;;;;;;5018120;28;20250;-81
2023/07/05 00:07:39;;;;;;;4.03;3.47;;;22.90;50.40;;;;;;5018593;28;20192;-81
2023/07/05 00:10:07;;;;;;;4.05;3.65;;;23.00;50.40;;;;;;5027726;28;20256;-81
2023/07/05 00:12:34;;;;;;;5.65;3.88;;;22.90;50.50;;;;;;5017400;28;20200;-81
2023/07/05 00:15:03;;;;;;;4.60;3.60;;;23.00;50.50;;;;;;5018191;28;20211;-81
2023/07/05 00:17:32;;;;;;;4.20;3.65;;;22.90;50.40;;;;;;5017308;28;20203;-81
2023/07/05 00:19:59;;;;;;;4.50;3.60;;;22.90;50.50;;;;;;5017784;28;20781;-81
2023/07/05 00:22:27;;;;;;;5.47;3.92;;;22.90;50.50;;;;;;5017156;28;20226;-82
2023/07/05 00:24:54;;;;;;;4.25;3.80;;;22.90;50.40;;;;;;5001073;28;20659;-81
2023/07/05 00:27:21;;;;;;;3.97;3.55;;;22.90;50.50;;;;;;5034753;28;20203;-81
2023/07/05 00:29:48;;;;;;;3.72;3.42;;;22.90;50.40;;;;;;5018122;28;20224;-81
2023/07/05 00:32:16;;;;;;;4.95;3.45;;;22.90;50.50;;;;;;5003412;28;20199;-81
2023/07/05 00:34:43;;;;;;;3.55;3.25;;;22.90;50.50;;;;;;5003596;28;20200;-81
2023/07/05 00:37:10;;;;;;;4.05;3.60;;;22.90;50.50;;;;;;5019799;28;20200;-81
2023/07/05 00:39:37;;;;;;;3.67;3.38;;;22.90;50.60;;;;;;5020724;28;20215;-81
2023/07/05 00:42:05;;;;;;;4.85;3.45;;;22.90;50.60;;;;;;5021030;28;20219;-82
2023/07/05 00:44:32;;;;;;;4.40;3.80;;;22.90;50.60;;;;;;5020926;28;20192;-81
2023/07/05 00:47:00;;;;;;;4.07;3.40;;;22.90;50.60;;;;;;5038481;28;20188;-81
2023/07/05 00:49:29;;;;;;;4.95;3.65;;;22.90;50.60;;;;;;5019128;28;20230;-81
2023/07/05 00:51:58;;;;;;;3.90;3.50;;;22.90;50.60;;;;;;5017454;28;20242;-81
2023/07/05 00:54:27;;;;;;;4.35;3.50;;;22.80;50.60;;;;;;5021737;28;20658;-81
2023/07/05 00:56:55;;;;;;;4.13;3.47;;;22.90;51.30;;;;;;5021845;28;20287;-81
2023/07/05 00:59:24;;;;;;;4.22;3.30;;;22.90;50.70;;;;;;5022116;28;20216;-81
2023/07/05 01:01:51;;;;;;;3.72;3.33;;;22.80;50.60;;;;;;5006290;28;20328;-81
2023/07/05 01:04:18;;;;;;;4.15;3.38;;;22.90;50.70;;;;;;5023963;28;20204;-82
2023/07/05 01:06:47;;;;;;;4.30;3.80;;;22.80;50.70;;;;;;5017259;28;20200;-81
2023/07/05 01:09:15;;;;;;;4.28;3.65;;;22.90;50.70;;;;;;5017381;28;20270;-81
2023/07/05 01:11:56;;;;;;;4.07;3.28;;;22.80;50.60;;;;;;5036003;28;20285;-81
2023/07/05 01:14:35;;;;;;;3.83;3.33;;;22.90;50.70;;;;;;5019643;28;20291;-81
2023/07/05 01:17:08;;;;;;;4.40;3.90;;;22.90;50.70;;;;;;5018561;28;20196;-81
2023/07/05 01:19:57;;;;;;;4.28;3.55;;;22.90;50.60;;;;;;5017938;28;20254;-81
2023/07/05 01:23:03;;;;;;;3.83;3.42;;;22.90;50.70;;;;;;5003414;28;20216;-81
2023/07/05 01:25:55;;;;;;;4.00;3.60;;;22.90;50.70;;;;;;5017303;28;20282;-81
2023/07/05 01:28:37;;;;;;;3.75;3.35;;;22.90;50.90;;;;;;5016657;28;20196;-81
2023/07/05 01:31:16;;;;;;;5.15;3.58;;;22.90;50.80;;;;;;5018509;28;20206;-81
2023/07/05 01:33:47;;;;;;;4.07;3.50;;;22.90;50.90;;;;;;5023972;28;20188;-81
2023/07/05 01:36:14;;;;;;;5.50;3.42;;;22.90;50.90;;;;;;5022235;28;20239;-81
2023/07/05 01:38:41;;;;;;;4.90;3.80;;;22.90;51.00;;;;;;5021554;28;20731;-81
2023/07/05 01:41:08;;;;;;;4.40;3.33;;;22.90;51.00;;;;;;5021054;28;20261;-81
2023/07/05 01:43:36;;;;;;;4.05;3.30;;;22.90;51.00;;;;;;5020142;28;20233;-81
2023/07/05 01:46:18;;;;;;;3.50;3.20;;;22.80;51.00;;;;;;5016417;28;20200;-81
2023/07/05 01:49:04;;;;;;;3.90;3.40;;;22.90;51.10;;;;;;5017398;28;20242;-81
2023/07/05 01:51:34;;;;;;;4.75;3.42;;;22.80;51.10;;;;;;5016125;28;20196;-81
2023/07/05 01:54:02;;;;;;;6.93;3.80;;;22.80;51.10;;;;;;5016142;28;20200;-81
2023/07/05 01:56:32;;;;;;;3.83;3.33;;;22.80;51.20;;;;;;5015823;28;20283;-81
2023/07/05 01:59:04;;;;;;;5.20;3.53;;;22.80;51.20;;;;;;5015946;28;20224;-81
2023/07/05 02:01:32;;;;;;;3.30;3.05;;;22.80;51.20;;;;;;5033018;28;20246;-81
2023/07/05 02:04:01;;;;;;;4.78;3.30;;;22.80;51.20;;;;;;5015646;28;20223;-81
2023/07/05 02:06:28;;;;;;;3.45;3.13;;;22.80;51.20;;;;;;5015721;28;20204;-81
2023/07/05 02:08:55;;;;;;;3.40;3.10;;;22.80;51.30;;;;;;5015581;28;20227;-81
2023/07/05 02:11:23;;;;;;;3.65;3.35;;;22.80;51.40;;;;;;5015845;28;20677;-81
2023/07/05 02:13:50;;;;;;;4.03;3.08;;;22.90;51.50;;;;;;5015582;28;20651;-81
2023/07/05 02:16:17;;;;;;;3.40;3.10;;;22.80;51.50;;;;;;5015746;28;20597;-81
2023/07/05 02:18:44;;;;;;;3.13;2.83;;;22.80;51.40;;;;;;5018767;28;20216;-81
2023/07/05 02:21:12;;;;;;;3.50;3.15;;;22.80;52.10;;;;;;5003373;28;20203;-81
2023/07/05 02:23:39;;;;;;;3.53;2.83;;;22.80;51.60;;;;;;5018907;28;20223;-81
2023/07/05 02:26:07;;;;;;;3.65;3.35;;;22.80;51.60;;;;;;5019151;28;20214;-80
2023/07/05 02:28:34;;;;;;;3.03;2.72;;;22.70;51.60;;;;;;5018876;28;20222;-81
2023/07/05 02:31:04;;;;;;;3.15;2.85;;;22.80;51.70;;;;;;5018864;28;20215;-81
2023/07/05 02:33:31;;;;;;;4.05;2.67;;;22.80;51.70;;;;;;5018877;28;20196;-81
2023/07/05 02:35:58;;;;;;;3.85;3.20;;;22.80;51.80;;;;;;5018784;28;20206;-81
2023/07/05 02:38:26;;;;;;;3.28;2.95;;;22.80;51.80;;;;;;5003326;28;20220;-81
2023/07/05 02:40:53;;;;;;;3.83;3.00;;;22.80;51.80;;;;;;5020466;28;20295;-81
2023/07/05 02:43:20;;;;;;;2.80;2.60;;;22.80;51.90;;;;;;5019700;28;20212;-81
2023/07/05 02:45:48;;;;;;;3.33;2.90;;;22.90;52.00;;;;;;5020071;28;20195;-81
2023/07/05 02:48:15;;;;;;;3.00;2.70;;;22.80;51.90;;;;;;5018706;28;20239;-80
2023/07/05 02:50:42;;;;;;;3.10;2.80;;;22.80;51.90;;;;;;5019092;28;20204;-80
2023/07/05 02:53:09;;;;;;;2.72;2.50;;;22.80;52.00;;;;;;5018615;28;20192;-81
2023/07/05 02:55:37;;;;;;;2.67;2.47;;;22.80;52.10;;;;;;5019094;28;20200;-81
2023/07/05 02:58:07;;;;;;;3.03;2.67;;;22.70;52.00;;;;;;5004482;28;20200;-81
2023/07/05 03:00:43;;;;;;;2.67;2.47;;;22.80;52.20;;;;;;5018865;28;20207;-81
2023/07/05 03:03:10;;;;;;;3.08;2.33;;;22.80;52.20;;;;;;5018701;28;20283;-81
2023/07/05 03:05:37;;;;;;;2.90;2.35;;;22.80;52.40;;;;;;5018778;28;20199;-81
2023/07/05 03:08:05;;;;;;;2.63;2.38;;;22.80;52.40;;;;;;5002604;28;20231;-81
2023/07/05 03:10:32;;;;;;;3.20;2.50;;;22.80;52.50;;;;;;5019740;28;20200;-81
2023/07/05 03:13:01;;;;;;;2.63;2.22;;;22.80;52.70;;;;;;5019144;28;20226;-81
2023/07/05 03:15:29;;;;;;;3.88;2.60;;;22.80;52.70;;;;;;5059751;22;20219;-81
2023/07/05 03:17:56;;;;;;;2.30;2.10;;;22.80;52.70;;;;;;5020456;28;20192;-82
2023/07/05 03:20:23;;;;;;;2.45;2.17;;;22.80;52.50;;;;;;5019279;28;20220;-82
2023/07/05 03:22:50;;;;;;;2.42;2.20;;;22.90;52.60;;;;;;5019013;28;20638;-82
2023/07/05 03:25:18;;;;;;;2.90;2.15;;;22.90;52.50;;;;;;5019335;28;20196;-82
2023/07/05 03:27:45;;;;;;;3.05;2.20;;;22.90;52.50;;;;;;5018898;28;20211;-82
2023/07/05 03:30:14;;;;;;;2.40;2.20;;;22.90;52.50;;;;;;5019143;28;20216;-82
2023/07/05 03:32:43;;;;;;;2.50;2.30;;;23.00;52.50;;;;;;5019204;28;20193;-82
2023/07/05 03:35:11;;;;;;;2.20;2.00;;;23.00;52.40;;;;;;5018744;28;20294;-82
2023/07/05 03:37:38;;;;;;;2.00;1.90;;;23.00;52.20;;;;;;5018959;28;20215;-82
2023/07/05 03:40:06;;;;;;;2.15;2.05;;;23.10;52.20;;;;;;5018478;28;20223;-83
2023/07/05 03:42:33;;;;;;;2.10;1.90;;;23.10;52.10;;;;;;5018532;28;20224;-82
2023/07/05 03:45:00;;;;;;;2.20;2.00;;;23.10;52.00;;;;;;5018713;28;20194;-82
2023/07/05 03:47:29;;;;;;;2.42;2.17;;;23.20;52.00;;;;;;5018447;28;20565;-82
2023/07/05 04:14:08;;;;;;;2.60;2.00;;;23.30;51.70;;;;;;5032832;28;20211;-55
2023/07/05 04:16:36;;;;;;;1.98;1.70;;;23.30;51.80;;;;;;5016269;28;20207;-55
2023/07/05 04:19:03;;;;;;;1.95;1.70;;;23.30;51.80;;;;;;5034225;28;20192;-55
2023/07/05 04:21:30;;;;;;;1.85;1.63;;;23.30;51.80;;;;;;5016220;28;20200;-55
2023/07/05 04:23:58;;;;;;;1.73;1.52;;;23.30;51.80;;;;;;5016116;28;20239;-55
2023/07/05 04:26:26;;;;;;;1.73;1.60;;;23.30;52.50;;;;;;5016131;28;20545;-55
2023/07/05 04:28:53;;;;;;;2.00;1.90;;;23.30;51.80;;;;;;5013878;28;20193;-55
2023/07/05 04:31:25;;;;;;;2.42;2.00;;;23.40;51.80;;;;;;5033765;28;20200;-55
2023/07/05 04:33:52;;;;;;;1.80;1.70;;;23.40;52.00;;;;;;5016134;28;20286;-55
2023/07/05 04:36:19;;;;;;;1.95;1.60;;;23.40;52.00;;;;;;5033683;28;20199;-55
2023/07/05 04:38:46;;;;;;;1.60;1.48;;;23.40;52.10;;;;;;5030776;28;20192;-55
2023/07/05 04:41:13;;;;;;;2.03;1.65;;;23.40;52.20;;;;;;5015871;28;20192;-54
2023/07/05 04:43:40;;;;;;;1.90;1.60;;;23.40;53.80;;;;;;5033500;28;20204;-54
2023/07/05 04:46:08;;;;;;;1.85;1.70;;;23.30;54.40;;;;;;5033540;28;20211;-54
2023/07/05 04:48:36;;;;;;;2.88;1.63;;;23.20;54.60;;;;;;5015790;28;20195;-54
2023/07/05 04:51:05;;;;;;;1.98;1.77;;;23.20;54.80;;;;;;5011773;28;20218;-54
2023/07/05 04:53:32;;;;;;;1.85;1.60;;;23.10;55.40;;;;;;5015639;28;20219;-54
2023/07/05 04:56:02;;;;;;;1.95;1.70;;;23.00;55.40;;;;;;5033448;28;20188;-54
2023/07/05 04:58:29;;;;;;;4.00;1.90;;;22.90;55.90;;;;;;5033350;28;20188;-54
2023/07/05 05:01:02;;;;;;;2.30;1.60;;;22.70;56.40;;;;;;5015661;28;20218;-54
2023/07/05 05:03:29;;;;;;;2.40;1.60;;;22.70;56.70;;;;;;5033120;28;20680;-54
2023/07/05 05:05:58;;;;;;;3.80;1.83;;;22.70;56.70;;;;;;5015650;28;20208;-55
2023/07/05 05:08:25;;;;;;;2.65;1.90;;;22.60;56.80;;;;;;5033509;28;20353;-53
2023/07/05 05:10:52;;;;;;;1.92;1.60;;;22.60;56.70;;;;;;5015841;28;20199;-53
2023/07/05 05:13:20;;;;;;;2.20;1.63;;;22.70;56.90;;;;;;5032754;28;20704;-55
2023/07/05 05:15:47;;;;;;;2.85;1.77;;;22.90;56.70;;;;;;5014877;28;20196;-54
2023/07/05 05:18:14;;;;;;;2.08;1.70;;;23.00;55.70;;;;;;5033295;28;20199;-54
2023/07/05 05:20:41;;;;;;;1.52;1.42;;;23.10;55.00;;;;;;5033259;28;20600;-54
2023/07/05 05:23:10;;;;;;;1.77;1.30;;;23.10;54.80;;;;;;5033007;28;20575;-54
2023/07/05 05:25:42;;;;;;;1.83;1.73;;;23.20;54.60;;;;;;5015629;28;20199;-54
2023/07/05 05:28:09;;;;;;;1.80;1.70;;;23.30;54.40;;;;;;5033461;28;20272;-53
2023/07/05 05:30:36;;;;;;;3.33;1.63;;;23.40;54.10;;;;;;5033646;28;20184;-54
2023/07/05 05:33:03;;;;;;;3.15;1.92;;;23.60;53.60;;;;;;5015272;28;20254;-54
2023/07/05 05:35:31;;;;;;;3.20;1.98;;;23.80;53.20;;;;;;5033071;28;20216;-53
2023/07/05 05:37:58;;;;;;;1.90;1.70;;;23.90;52.80;;;;;;5032996;28;20645;-54
2023/07/05 05:40:26;;;;;;;1.92;1.63;;;24.00;52.50;;;;;;5015410;28;20286;-54
2023/07/05 05:42:53;;;;;;;2.83;1.70;;;24.10;52.40;;;;;;5015093;28;20258;-54
2023/07/05 05:45:21;;;;;;;1.80;1.50;;;24.10;52.20;;;;;;5032197;28;20200;-53
2023/07/05 05:47:48;;;;;;;1.92;1.67;;;24.20;52.20;;;;;;5032984;28;20290;-54
2023/07/05 05:50:15;;;;;;;2.83;1.50;;;24.20;52.20;;;;;;5032753;28;20267;-54
2023/07/05 05:52:43;;;;;;;2.30;1.70;;;24.20;52.10;;;;;;5017819;28;20705;-54
2023/07/05 05:55:10;;;;;;;1.60;1.50;;;24.20;52.10;;;;;;5018959;28;20206;-54
2023/07/05 05:57:38;;;;;;;2.65;1.70;;;24.10;52.00;;;;;;5018973;28;20200;-54
2023/07/05 06:00:09;;;;;;;1.65;1.55;;;24.20;52.10;;;;;;5036550;28;20184;-54
2023/07/05 06:02:37;;;;;;;2.65;1.40;;;24.20;52.00;;;;;;5036447;28;20299;-54
2023/07/05 06:05:04;;;;;;;1.80;1.65;;;24.30;51.90;;;;;;5036564;28;20198;-54
2023/07/05 06:07:31;;;;;;;1.88;1.67;;;24.30;51.70;;;;;;5036497;28;20188;-54
2023/07/05 06:09:59;;;;;;;1.75;1.52;;;24.30;51.70;;;;;;5018656;28;20710;-53
2023/07/05 06:12:26;;;;;;;1.85;1.70;;;24.40;51.70;;;;;;5018367;28;20719;-54
2023/07/05 06:14:54;;;;;;;2.00;1.55;;;24.40;51.50;;;;;;5018612;28;20233;-54
2023/07/05 06:17:22;;;;;;;1.65;1.52;;;24.40;51.50;;;;;;5036869;28;20271;-54
2023/07/05 06:19:49;;;;;;;1.67;1.58;;;24.50;51.30;;;;;;5036274;28;20656;-54
2023/07/05 06:22:16;;;;;;;2.17;1.60;;;24.70;51.10;;;;;;5036148;28;20223;-54
2023/07/05 06:24:43;;;;;;;1.60;1.50;;;24.70;50.90;;;;;;5036133;28;20212;-54
2023/07/05 06:27:11;;;;;;;2.55;1.73;;;24.80;50.90;;;;;;5018926;28;20679;-54
2023/07/05 06:29:38;;;;;;;1.85;1.60;;;24.80;50.70;;;;;;5035955;28;20211;-54
2023/07/05 06:32:07;;;;;;;1.55;1.45;;;24.90;50.60;;;;;;5018256;28;20220;-54
2023/07/05 06:34:34;;;;;;;1.88;1.60;;;24.90;50.70;;;;;;5035988;28;20208;-54
2023/07/05 06:37:01;;;;;;;1.75;1.50;;;25.10;50.40;;;;;;5036219;28;20198;-54
2023/07/05 06:39:28;;;;;;;2.13;1.50;;;25.20;49.90;;;;;;5018588;28;20200;-54
2023/07/05 06:41:55;;;;;;;1.75;1.65;;;25.30;49.90;;;;;;5036332;28;20208;-54
2023/07/05 06:44:23;;;;;;;2.00;1.70;;;25.30;49.70;;;;;;5036237;28;20214;-54
2023/07/05 06:46:50;;;;;;;1.80;1.40;;;25.30;49.60;;;;;;5036024;28;20261;-53
2023/07/05 06:49:19;;;;;;;1.70;1.60;;;25.30;49.90;;;;;;5018004;28;20199;-54
2023/07/05 06:51:46;;;;;;;1.67;1.58;;;25.20;49.90;;;;;;5035706;28;20212;-54
2023/07/05 06:54:14;;;;;;;2.15;1.83;;;25.10;49.80;;;;;;5035922;28;20196;-54
2023/07/05 06:56:41;;;;;;;1.77;1.67;;;25.10;50.00;;;;;;5035562;28;20200;-54
2023/07/05 06:59:08;;;;;;;2.20;1.70;;;25.00;50.40;;;;;;5017702;28;20201;-54
2023/07/05 07:01:35;;;;;;;2.03;1.67;;;24.90;50.60;;;;;;5017811;28;20208;-54
2023/07/05 07:04:05;;;;;;;3.05;1.90;;;24.90;50.90;;;;;;5034696;28;20681;-54
2023/07/05 07:06:34;;;;;;;2.80;1.70;;;24.80;51.10;;;;;;5035720;28;20185;-54
2023/07/05 07:09:03;;;;;;;2.42;1.73;;;24.80;51.30;;;;;;5035664;28;20196;-54
2023/07/05 07:11:31;;;;;;;3.10;1.80;;;24.70;51.40;;;;;;5035205;28;20271;-54
2023/07/05 07:13:58;;;;;;;1.70;1.60;;;24.70;51.60;;;;;;5017431;28;20283;-54
2023/07/05 07:16:25;;;;;;;2.55;2.10;;;24.70;51.80;;;;;;5035358;28;20188;-54
2023/07/05 07:18:52;;;;;;;2.10;1.90;;;24.60;52.10;;;;;;5035324;28;20192;-54
2023/07/05 07:21:20;;;;;;;2.67;1.95;;;24.60;52.30;;;;;;5017356;28;20661;-55
2023/07/05 07:23:49;;;;;;;2.10;1.90;;;24.50;52.50;;;;;;5034977;28;20222;-54
2023/07/05 07:26:18;;;;;;;2.15;1.70;;;24.50;52.70;;;;;;5017261;28;20204;-54
2023/07/05 07:28:46;;;;;;;2.03;1.83;;;24.50;52.70;;;;;;5034917;28;20216;-54
2023/07/05 07:31:13;;;;;;;2.05;1.70;;;24.50;52.80;;;;;;5017069;28;20572;-54
2023/07/05 07:33:40;;;;;;;3.63;2.00;;;24.60;53.00;;;;;;5034797;28;20184;-54
2023/07/05 07:36:09;;;;;;;1.90;1.70;;;24.60;53.00;;;;;;5017034;28;20606;-54
2023/07/05 07:38:36;;;;;;;2.03;1.70;;;24.70;53.30;;;;;;5035096;28;20192;-54
2023/07/05 07:41:05;;;;;;;2.83;1.60;;;24.70;53.30;;;;;;5034751;28;20214;-54
2023/07/05 07:43:32;;;;;;;1.98;1.77;;;24.70;53.10;;;;;;5016832;28;20718;-54
2023/07/05 07:45:59;;;;;;;2.03;1.70;;;24.70;53.10;;;;;;5016872;28;20287;-54
2023/07/05 07:48:26;;;;;;;2.55;1.88;;;24.80;53.10;;;;;;5023423;28;20204;-54
2023/07/05 07:50:53;;;;;;;1.75;1.55;;;24.80;53.10;;;;;;5016989;28;20196;-54
2023/07/05 07:53:20;;;;;;;2.60;1.80;;;25.00;52.80;;;;;;5034756;28;20302;-54
2023/07/05 07:55:47;;;;;;;2.20;2.00;;;25.10;52.60;;;;;;5034415;28;20211;-54
2023/07/05 07:58:16;;;;;;;1.70;1.60;;;25.20;52.10;;;;;;5016688;28;20235;-54
2023/07/05 08:00:43;;;;;;;2.28;1.80;;;25.20;52.10;;;;;;5034382;28;20562;-54
2023/07/05 08:03:10;;;;;;;2.13;1.75;;;25.20;52.40;;;;;;5034114;28;20699;-54
2023/07/05 08:05:38;;;;;;;1.75;1.60;;;25.20;52.10;;;;;;5016474;28;20577;-54
2023/07/05 08:08:05;;;;;;;1.85;1.60;;;25.10;51.90;;;;;;5034164;28;20279;-54
2023/07/05 08:10:32;;;;;;;2.63;1.70;;;25.10;52.20;;;;;;5034597;28;20192;-54
2023/07/05 08:13:00;;;;;;;2.05;1.80;;;25.10;52.50;;;;;;5033913;28;20226;-54
2023/07/05 08:15:28;;;;;;;2.10;1.90;;;25.00;52.60;;;;;;5015335;28;20227;-54
2023/07/05 08:17:56;;;;;;;1.85;1.75;;;25.00;52.70;;;;;;5016240;28;20552;-54
2023/07/05 08:20:24;;;;;;;2.42;1.80;;;24.90;52.70;;;;;;5034190;28;20267;-54
2023/07/05 08:22:51;;;;;;;2.08;1.70;;;24.90;53.10;;;;;;5016138;28;20216;-54
2023/07/05 08:25:18;;;;;;;2.20;1.58;;;24.90;53.30;;;;;;5033787;28;20211;-54
2023/07/05 08:27:45;;;;;;;2.50;1.80;;;24.90;53.30;;;;;;5016063;28;20207;-54
2023/07/05 08:30:13;;;;;;;1.70;1.60;;;24.80;53.30;;;;;;5033844;28;20206;-54
2023/07/05 08:32:41;;;;;;;2.45;1.80;;;24.70;53.30;;;;;;5033668;28;20210;-54
2023/07/05 08:35:09;;;;;;;4.20;1.63;;;24.70;53.20;;;;;;5015989;28;20564;-54
2023/07/05 08:37:36;;;;;;;1.83;1.45;;;24.60;53.20;;;;;;5033698;28;20198;-54
2023/07/05 08:40:07;;;;;;;1.70;1.60;;;24.60;53.30;;;;;;5033728;28;20191;-54
2023/07/05 08:42:42;;;;;;;1.60;1.50;;;24.60;53.40;;;;;;5033734;28;20239;-54
2023/07/05 08:45:16;;;;;;;1.90;1.50;;;24.60;53.30;;;;;;5015855;28;20215;-54
2023/07/05 08:47:47;;;;;;;1.67;1.58;;;24.60;53.30;;;;;;5033597;28;20173;-54
2023/07/05 08:50:22;;;;;;;1.77;1.50;;;24.50;53.30;;;;;;5033599;28;20176;-54
2023/07/05 08:52:49;;;;;;;1.85;1.70;;;24.50;53.50;;;;;;5016271;28;20231;-54
2023/07/05 08:55:18;;;;;;;1.85;1.70;;;24.50;53.30;;;;;;5033452;28;20193;-54
2023/07/05 08:57:47;;;;;;;1.77;1.60;;;24.50;53.50;;;;;;5015737;28;20315;-54
2023/07/05 09:00:16;;;;;;;1.60;1.50;;;24.50;53.50;;;;;;5033391;28;20354;-53
2023/07/05 09:02:43;;;;;;;1.77;1.60;;;24.50;53.70;;;;;;5015629;28;20635;-54
2023/07/05 09:05:16;;;;;;;1.60;1.50;;;24.50;53.40;;;;;;5033242;28;20212;-54
2023/07/05 09:07:48;;;;;;;1.60;1.50;;;24.60;53.60;;;;;;5033370;28;20184;-54
2023/07/05 09:10:19;;;;;;;2.13;1.67;;;24.60;53.70;;;;;;5015954;28;20227;-54
2023/07/05 09:12:49;;;;;;;2.50;1.55;;;24.60;53.50;;;;;;5016126;28;20259;-54
2023/07/05 09:15:19;;;;;;;1.70;1.60;;;24.60;53.50;;;;;;5016779;28;20572;-54
2023/07/05 09:17:53;;;;;;;1.83;1.52;;;24.70;54.10;;;;;;5033457;28;20187;-54
2023/07/05 09:20:35;;;;;;;1.60;1.50;;;24.80;53.30;;;;;;5033246;28;20188;-54
2023/07/05 09:23:04;;;;;;;1.50;1.40;;;25.00;52.90;;;;;;5033306;28;20696;-54
2023/07/05 09:25:31;;;;;;;1.92;1.60;;;25.20;52.40;;;;;;5015423;28;20219;-54
2023/07/05 09:28:04;;;;;;;1.67;1.40;;;25.20;52.00;;;;;;5018710;28;20199;-54
2023/07/05 09:30:33;;;;;;;1.67;1.55;;;25.20;52.00;;;;;;5019445;28;20640;-54
2023/07/05 09:33:05;;;;;;;2.22;1.48;;;25.20;52.00;;;;;;5019287;28;20215;-54
2023/07/05 09:35:35;;;;;;;1.40;1.30;;;25.20;51.90;;;;;;5019394;28;20652;-54
2023/07/05 09:38:04;;;;;;;2.33;1.60;;;25.20;51.90;;;;;;5019317;28;20196;-54
2023/07/05 09:40:32;;;;;;;2.03;1.60;;;25.20;51.80;;;;;;5019319;28;20241;-54
2023/07/05 09:43:02;;;;;;;1.63;1.50;;;25.20;51.80;;;;;;5019203;28;20262;-54
2023/07/05 09:45:29;;;;;;;1.63;1.45;;;25.10;51.90;;;;;;5019083;28;20220;-54
2023/07/05 09:47:59;;;;;;;2.10;1.52;;;25.10;51.90;;;;;;5019155;28;20200;-54
2023/07/05 09:50:26;;;;;;;1.55;1.45;;;25.10;52.50;;;;;;5036797;28;20203;-54
2023/07/05 09:52:58;;;;;;;1.70;1.60;;;25.10;51.80;;;;;;5018936;28;20319;-54
2023/07/05 09:55:26;;;;;;;1.85;1.63;;;25.20;51.70;;;;;;5019028;28;20204;-54
2023/07/05 09:57:54;;;;;;;1.83;1.50;;;25.40;51.50;;;;;;5037148;28;20196;-54
2023/07/05 10:00:22;;;;;;;1.50;1.40;;;25.50;51.60;;;;;;5019067;28;20207;-54
2023/07/05 10:02:49;;;;;;;2.25;1.50;;;25.70;50.50;;;;;;5019467;28;20216;-54
2023/07/05 10:05:29;;;;;;;1.70;1.60;;;25.90;50.10;;;;;;5036903;28;20219;-54
2023/07/05 10:07:58;;;;;;;1.67;1.52;;;26.00;49.60;;;;;;5036991;28;20258;-54
2023/07/05 10:10:27;;;;;;;1.98;1.52;;;26.10;49.20;;;;;;5036559;28;20196;-54
2023/07/05 10:13:00;;;;;;;1.77;1.67;;;26.20;48.80;;;;;;5018585;28;20559;-54
2023/07/05 10:15:27;;;;;;;1.63;1.40;;;26.30;48.70;;;;;;5036495;28;20191;-54
2023/07/05 10:17:57;;;;;;;1.90;1.70;;;26.40;48.40;;;;;;5036623;28;20187;-54
2023/07/05 10:20:25;;;;;;;2.00;1.80;;;26.50;48.20;;;;;;5036242;28;20212;-54
2023/07/05 10:23:02;;;;;;;1.70;1.60;;;26.50;47.80;;;;;;5018381;28;20318;-54
2023/07/05 10:25:33;;;;;;;2.00;1.80;;;26.50;47.40;;;;;;5018444;28;20223;-54
2023/07/05 10:28:01;;;;;;;2.10;1.90;;;26.60;47.20;;;;;;5036398;28;20245;-54
2023/07/05 10:30:29;;;;;;;2.47;1.70;;;26.60;46.90;;;;;;5018432;28;20198;-54
2023/07/05 10:33:10;;;;;;;2.22;2.03;;;26.60;46.60;;;;;;5036304;28;20295;-54
2023/07/05 10:35:46;;;;;;;1.95;1.75;;;26.60;46.30;;;;;;5036093;28;20270;-54
2023/07/05 10:38:25;;;;;;;1.80;1.70;;;26.60;46.50;;;;;;5034990;28;20203;-54
2023/07/05 10:40:54;;;;;;;1.92;1.73;;;26.60;46.20;;;;;;5018296;28;20187;-54
2023/07/05 10:43:22;;;;;;;1.95;1.80;;;26.60;46.10;;;;;;5035785;28;20222;-54
2023/07/05 10:45:49;;;;;;;2.50;2.03;;;26.60;46.20;;;;;;5035733;28;20207;-54
2023/07/05 10:48:24;;;;;;;1.92;1.83;;;26.70;45.30;;;;;;5035677;28;20203;-54
2023/07/05 10:50:51;;;;;;;2.03;1.90;;;26.60;45.30;;;;;;5035728;28;20171;-54
2023/07/05 10:53:19;;;;;;;1.67;1.55;;;26.60;45.50;;;;;;5017740;28;20219;-54
2023/07/05 10:55:50;;;;;;;1.80;1.70;;;26.60;45.30;;;;;;5017851;28;20196;-54
2023/07/05 10:58:19;;;;;;;1.95;1.83;;;26.60;45.90;;;;;;5035590;28;20606;-53
2023/07/05 11:00:48;;;;;;;2.00;1.90;;;26.50;45.40;;;;;;5017740;28;20196;-54
2023/07/05 11:03:17;;;;;;;2.28;2.08;;;26.50;45.00;;;;;;5017890;28;20587;-54
2023/07/05 11:05:46;;;;;;;2.03;1.90;;;26.50;44.60;;;;;;5017581;28;20224;-54
2023/07/05 11:08:17;;;;;;;2.33;2.13;;;26.40;44.30;;;;;;5035290;28;20210;-54
2023/07/05 11:10:44;;;;;;;2.25;2.05;;;26.40;44.50;;;;;;5073691;23;20236;-80
2023/07/05 11:13:15;;;;;;;2.30;2.10;;;26.40;44.70;;;;;;5000182;28;20320;-80
2023/07/05 11:15:42;;;;;;;2.20;2.00;;;26.40;44.90;;;;;;4984807;28;20252;-79
2023/07/05 11:18:13;;;;;;;2.30;2.10;;;26.30;44.80;;;;;;4999611;28;20196;-80
2023/07/05 11:20:51;;;;;;;2.30;2.10;;;26.30;44.50;;;;;;4999784;28;20196;-80
2023/07/05 11:23:48;;;;;;;2.17;1.98;;;26.20;44.30;;;;;;4999994;28;20287;-80
2023/07/05 11:26:29;;;;;;;2.28;2.08;;;26.20;44.90;;;;;;4994009;28;20303;-80
2023/07/05 11:28:58;;;;;;;2.42;2.22;;;26.20;44.60;;;;;;5000355;28;20223;-80
2023/07/05 11:31:59;;;;;;;2.10;1.90;;;26.20;44.70;;;;;;5002673;28;20251;-80
2023/07/05 11:34:45;;;;;;;3.40;2.50;;;26.20;44.80;;;;;;5002374;28;20201;-80
2023/07/05 11:37:48;;;;;;;2.95;2.50;;;26.20;44.90;;;;;;5003283;28;20248;-80
2023/07/05 11:40:59;;;;;;;2.50;2.30;;;26.20;44.10;;;;;;5003078;28;20663;-80
2023/07/05 11:43:27;;;;;;;2.95;2.40;;;26.20;44.50;;;;;;5002790;28;20192;-78
2023/07/05 11:45:55;;;;;;;2.58;2.10;;;26.20;44.60;;;;;;5001588;28;20216;-79
2023/07/05 11:48:43;;;;;;;2.38;2.10;;;26.20;44.70;;;;;;5002416;28;20544;-80
2023/07/05 11:51:25;;;;;;;2.40;2.20;;;26.30;44.80;;;;;;4999806;28;20212;-80
2023/07/05 11:53:53;;;;;;;2.08;1.98;;;26.30;44.90;;;;;;5002622;28;20199;-80
2023/07/05 11:56:20;;;;;;;2.60;2.40;;;26.30;44.80;;;;;;5002118;28;20201;-80
2023/07/05 11:58:51;;;;;;;2.50;2.30;;;26.20;44.90;;;;;;5001945;28;20291;-80
2023/07/05 12:01:28;;;;;;;2.50;2.30;;;26.20;44.70;;;;;;4998593;28;20291;-80
2023/07/05 12:03:58;;;;;;;2.38;2.17;;;26.20;44.60;;;;;;4999345;28;20251;-80
2023/07/05 12:06:29;;;;;;;2.30;2.10;;;26.30;44.70;;;;;;4999489;28;20212;-80
2023/07/05 12:08:56;;;;;;;2.40;2.20;;;26.30;44.50;;;;;;4999587;28;20228;-80
2023/07/05 12:11:28;;;;;;;2.50;2.30;;;26.30;44.50;;;;;;5000399;28;20211;-80
2023/07/05 12:14:00;;;;;;;3.22;2.53;;;26.30;44.20;;;;;;5000846;28;20200;-80
2023/07/05 12:16:29;;;;;;;2.47;2.28;;;26.20;44.20;;;;;;5000486;28;20192;-80
2023/07/05 12:18:56;;;;;;;2.80;2.60;;;26.20;44.40;;;;;;4999923;28;20342;-80
2023/07/05 12:21:24;;;;;;;2.05;1.85;;;26.20;44.50;;;;;;5000963;28;20204;-80
2023/07/05 12:23:54;;;;;;;2.78;2.55;;;26.20;44.50;;;;;;4997086;28;20204;-80
2023/07/05 12:26:24;;;;;;;2.60;2.40;;;26.20;44.10;;;;;;4999362;28;20220;-80
2023/07/05 12:28:52;;;;;;;3.00;2.40;;;26.20;43.80;;;;;;5000790;28;20267;-80
2023/07/05 12:31:20;;;;;;;2.65;2.45;;;26.20;44.30;;;;;;5000953;28;20188;-80
2023/07/05 12:33:54;;;;;;;2.63;2.20;;;26.20;44.20;;;;;;5001582;28;20203;-80
2023/07/05 12:36:21;;;;;;;2.53;2.20;;;26.10;44.40;;;;;;5001753;28;20198;-79
2023/07/05 12:38:49;;;;;;;3.85;2.50;;;26.10;44.60;;;;;;5003129;28;20274;-79
2023/07/05 12:41:18;;;;;;;3.25;2.50;;;26.10;41.60;;;;;;5001824;28;20196;-80
2023/07/05 12:43:45;;;;;;;3.75;2.33;;;26.10;38.90;;;;;;5000741;28;20204;-80
2023/07/05 12:46:14;;;;;;;3.60;2.50;;;26.10;40.10;;;;;;5000354;28;20215;-80
2023/07/05 12:48:41;;;;;;;4.28;2.95;;;26.00;40.20;;;;;;4999575;28;20274;-79
2023/07/05 12:51:14;;;;;;;2.58;2.20;;;26.00;39.10;;;;;;5000036;28;20331;-79
2023/07/05 12:53:41;;;;;;;2.40;2.20;;;26.00;39.90;;;;;;4999314;28;20192;-79
2023/07/05 12:56:09;;;;;;;5.00;2.53;;;26.00;37.00;;;;;;4984285;28;20276;-79
2023/07/05 12:58:36;;;;;;;4.10;2.70;;;25.90;37.60;;;;;;4999331;28;20219;-80
2023/07/05 13:01:04;;;;;;;3.28;2.42;;;25.90;37.50;;;;;;4997424;28;20205;-80
2023/07/05 13:03:32;;;;;;;2.30;2.10;;;25.90;38.00;;;;;;4998091;28;20204;-80
2023/07/05 13:05:59;;;;;;;2.97;2.30;;;25.90;38.10;;;;;;4999444;28;20661;-80
2023/07/05 13:08:29;;;;;;;2.20;2.00;;;25.90;38.50;;;;;;5000190;28;20215;-80
2023/07/05 13:10:56;;;;;;;3.95;2.35;;;25.90;38.80;;;;;;5000155;28;20204;-80
2023/07/05 13:13:30;;;;;;;2.10;1.88;;;25.90;38.60;;;;;;4999818;28;20219;-79
2023/07/05 13:15:58;;;;;;;3.35;2.47;;;25.90;38.90;;;;;;4995272;28;20195;-80
2023/07/05 13:18:29;;;;;;;4.05;2.67;;;25.90;39.10;;;;;;4999131;28;20224;-80
2023/07/05 13:21:10;;;;;;;2.63;2.05;;;25.90;39.10;;;;;;4998445;28;20228;-80
2023/07/05 13:23:44;;;;;;;2.60;2.40;;;25.90;39.20;;;;;;4998416;28;20199;-80